
<gpx xmlns="http://www.topografix.com/GPX/1/1" xmlns:gpxx="http://www.garmin.com/xmlschemas/GpxExtensions/v3" xmlns:xsi="http://www.w3.org/2001/XMLSchema-instance" version="1.1" creator="Adze - http://kobotsw.com/apps/adze" xsi:schemaLocation="http://www.topografix.com/GPX/1/1 http://www.topografix.com/GPX/1/1/gpx.xsd http://www.garmin.com/xmlschemas/GpxExtensions/v3 http://www.garmin.com/xmlschemas/GpxExtensionsv3.xsd">
    <metadata>
        <name>Untitled Document</name>
        <link href="http://www.garmin.com"></link>
        <time>2018-02-04T08:16:08.101Z</time>
    </metadata>
    <wpt lon="100.892103" lat="12.762876">
        <ele>8.000000</ele>
        <time>2016-11-26T07:50:22Z</time>
        <name>Water Saturday</name>
        <sym>Drinking Water</sym>
        <extensions>
            <gpxx:WaypointExtension xmlns:gpxx="http://www.garmin.com/xmlschemas/GpxExtensions/v3">
                <gpxx:DisplayMode>SymbolOnly</gpxx:DisplayMode>
            </gpxx:WaypointExtension>
        </extensions>
    </wpt>
    <wpt lon="100.897870" lat="12.764601">
        <ele>7.000000</ele>
        <time>2016-11-25T08:42:15Z</time>
        <name>Willkris</name>
        <sym>Lodging</sym>
        <extensions>
            <gpxx:WaypointExtension xmlns:gpxx="http://www.garmin.com/xmlschemas/GpxExtensions/v3">
                <gpxx:DisplayMode>SymbolOnly</gpxx:DisplayMode>
            </gpxx:WaypointExtension>
        </extensions>
    </wpt>
    <trk>
        <name>Saturday</name>
        <extensions>
            <gpxx:TrackExtension xmlns:gpxx="http://www.garmin.com/xmlschemas/GpxExtensions/v3">
                <gpxx:DisplayColor>Red</gpxx:DisplayColor>
            </gpxx:TrackExtension>
        </extensions>
        <trkseg>
            <trkpt lon="100.897888" lat="12.764565">
                <ele>8.790000</ele>
                <time>2016-11-26T06:05:08Z</time>
            </trkpt>
            <trkpt lon="100.897832" lat="12.764716">
                <ele>10.710000</ele>
                <time>2016-11-26T06:05:20Z</time>
            </trkpt>
            <trkpt lon="100.897276" lat="12.765006">
                <ele>10.230000</ele>
                <time>2016-11-26T06:05:37Z</time>
            </trkpt>
            <trkpt lon="100.897273" lat="12.765075">
                <ele>9.750000</ele>
                <time>2016-11-26T06:05:39Z</time>
            </trkpt>
            <trkpt lon="100.897614" lat="12.765903">
                <ele>8.790000</ele>
                <time>2016-11-26T06:05:59Z</time>
            </trkpt>
            <trkpt lon="100.898213" lat="12.766472">
                <ele>11.670000</ele>
                <time>2016-11-26T06:06:17Z</time>
            </trkpt>
            <trkpt lon="100.898613" lat="12.766928">
                <ele>12.150000</ele>
                <time>2016-11-26T06:06:33Z</time>
            </trkpt>
            <trkpt lon="100.898062" lat="12.767151">
                <ele>10.710000</ele>
                <time>2016-11-26T06:06:49Z</time>
            </trkpt>
            <trkpt lon="100.897792" lat="12.767421">
                <ele>10.230000</ele>
                <time>2016-11-26T06:07:00Z</time>
            </trkpt>
            <trkpt lon="100.897620" lat="12.767744">
                <ele>9.750000</ele>
                <time>2016-11-26T06:07:10Z</time>
            </trkpt>
            <trkpt lon="100.897906" lat="12.767987">
                <ele>8.310000</ele>
                <time>2016-11-26T06:07:21Z</time>
            </trkpt>
            <trkpt lon="100.898095" lat="12.768227">
                <ele>7.830000</ele>
                <time>2016-11-26T06:07:30Z</time>
            </trkpt>
            <trkpt lon="100.897578" lat="12.768823">
                <ele>8.310000</ele>
                <time>2016-11-26T06:07:52Z</time>
            </trkpt>
            <trkpt lon="100.897269" lat="12.769237">
                <ele>8.310000</ele>
                <time>2016-11-26T06:08:06Z</time>
            </trkpt>
            <trkpt lon="100.897285" lat="12.769306">
                <ele>8.310000</ele>
                <time>2016-11-26T06:08:08Z</time>
            </trkpt>
            <trkpt lon="100.897304" lat="12.769414">
                <ele>7.830000</ele>
                <time>2016-11-26T06:08:11Z</time>
            </trkpt>
            <trkpt lon="100.899066" lat="12.771462">
                <ele>9.270000</ele>
                <time>2016-11-26T06:09:07Z</time>
            </trkpt>
            <trkpt lon="100.899596" lat="12.772147">
                <ele>8.790000</ele>
                <time>2016-11-26T06:09:24Z</time>
            </trkpt>
            <trkpt lon="100.901769" lat="12.775203">
                <ele>5.910000</ele>
                <time>2016-11-26T06:10:38Z</time>
            </trkpt>
            <trkpt lon="100.902074" lat="12.774791">
                <ele>8.790000</ele>
                <time>2016-11-26T06:10:59Z</time>
            </trkpt>
            <trkpt lon="100.903315" lat="12.774071">
                <ele>24.170000</ele>
                <time>2016-11-26T06:11:56Z</time>
            </trkpt>
            <trkpt lon="100.904097" lat="12.773609">
                <ele>24.170000</ele>
                <time>2016-11-26T06:15:30Z</time>
            </trkpt>
            <trkpt lon="100.904273" lat="12.774294">
                <ele>17.440000</ele>
                <time>2016-11-26T06:16:26Z</time>
            </trkpt>
            <trkpt lon="100.904644" lat="12.774331">
                <ele>18.400000</ele>
                <time>2016-11-26T06:16:42Z</time>
            </trkpt>
            <trkpt lon="100.905756" lat="12.773704">
                <ele>23.690000</ele>
                <time>2016-11-26T06:17:38Z</time>
            </trkpt>
            <trkpt lon="100.906369" lat="12.773480">
                <ele>26.090000</ele>
                <time>2016-11-26T06:18:14Z</time>
            </trkpt>
            <trkpt lon="100.906608" lat="12.773537">
                <ele>27.530000</ele>
                <time>2016-11-26T06:18:29Z</time>
            </trkpt>
            <trkpt lon="100.907266" lat="12.773372">
                <ele>26.570000</ele>
                <time>2016-11-26T06:19:10Z</time>
            </trkpt>
            <trkpt lon="100.907487" lat="12.773491">
                <ele>27.530000</ele>
                <time>2016-11-26T06:19:26Z</time>
            </trkpt>
            <trkpt lon="100.907916" lat="12.773459">
                <ele>30.420000</ele>
                <time>2016-11-26T06:19:53Z</time>
            </trkpt>
            <trkpt lon="100.908041" lat="12.773423">
                <ele>30.900000</ele>
                <time>2016-11-26T06:20:01Z</time>
            </trkpt>
            <trkpt lon="100.908175" lat="12.773529">
                <ele>30.420000</ele>
                <time>2016-11-26T06:20:12Z</time>
            </trkpt>
            <trkpt lon="100.908213" lat="12.773518">
                <ele>30.420000</ele>
                <time>2016-11-26T06:20:14Z</time>
            </trkpt>
            <trkpt lon="100.908597" lat="12.773363">
                <ele>32.820000</ele>
                <time>2016-11-26T06:20:31Z</time>
            </trkpt>
            <trkpt lon="100.909630" lat="12.772917">
                <ele>42.920000</ele>
                <time>2016-11-26T06:21:15Z</time>
            </trkpt>
            <trkpt lon="100.909867" lat="12.772813">
                <ele>40.510000</ele>
                <time>2016-11-26T06:21:38Z</time>
            </trkpt>
            <trkpt lon="100.909946" lat="12.772432">
                <ele>40.510000</ele>
                <time>2016-11-26T06:22:03Z</time>
            </trkpt>
            <trkpt lon="100.909781" lat="12.772463">
                <ele>40.030000</ele>
                <time>2016-11-26T06:22:11Z</time>
            </trkpt>
            <trkpt lon="100.909668" lat="12.772314">
                <ele>40.510000</ele>
                <time>2016-11-26T06:22:17Z</time>
            </trkpt>
            <trkpt lon="100.908969" lat="12.770733">
                <ele>36.670000</ele>
                <time>2016-11-26T06:22:51Z</time>
            </trkpt>
            <trkpt lon="100.908571" lat="12.769739">
                <ele>34.260000</ele>
                <time>2016-11-26T06:23:13Z</time>
            </trkpt>
            <trkpt lon="100.911829" lat="12.768398">
                <ele>41.950000</ele>
                <time>2016-11-26T06:25:20Z</time>
            </trkpt>
            <trkpt lon="100.912351" lat="12.768196">
                <ele>41.950000</ele>
                <time>2016-11-26T06:25:45Z</time>
            </trkpt>
            <trkpt lon="100.912789" lat="12.768003">
                <ele>40.510000</ele>
                <time>2016-11-26T06:26:06Z</time>
            </trkpt>
            <trkpt lon="100.913089" lat="12.767890">
                <ele>41.470000</ele>
                <time>2016-11-26T06:26:26Z</time>
            </trkpt>
            <trkpt lon="100.913350" lat="12.767757">
                <ele>42.440000</ele>
                <time>2016-11-26T06:26:52Z</time>
            </trkpt>
            <trkpt lon="100.913973" lat="12.767444">
                <ele>40.030000</ele>
                <time>2016-11-26T06:27:57Z</time>
            </trkpt>
            <trkpt lon="100.914095" lat="12.766776">
                <ele>40.990000</ele>
                <time>2016-11-26T06:28:37Z</time>
            </trkpt>
            <trkpt lon="100.914126" lat="12.765551">
                <ele>37.150000</ele>
                <time>2016-11-26T06:29:30Z</time>
            </trkpt>
            <trkpt lon="100.914111" lat="12.765381">
                <ele>37.150000</ele>
                <time>2016-11-26T06:29:40Z</time>
            </trkpt>
            <trkpt lon="100.916212" lat="12.764224">
                <ele>41.470000</ele>
                <time>2016-11-26T06:31:05Z</time>
            </trkpt>
            <trkpt lon="100.916710" lat="12.763882">
                <ele>40.030000</ele>
                <time>2016-11-26T06:31:23Z</time>
            </trkpt>
            <trkpt lon="100.917570" lat="12.764579">
                <ele>40.990000</ele>
                <time>2016-11-26T06:32:08Z</time>
            </trkpt>
            <trkpt lon="100.917890" lat="12.765172">
                <ele>41.470000</ele>
                <time>2016-11-26T06:32:27Z</time>
            </trkpt>
            <trkpt lon="100.918566" lat="12.765430">
                <ele>44.840000</ele>
                <time>2016-11-26T06:32:43Z</time>
            </trkpt>
            <trkpt lon="100.918823" lat="12.765481">
                <ele>43.880000</ele>
                <time>2016-11-26T06:32:48Z</time>
            </trkpt>
            <trkpt lon="100.918932" lat="12.765446">
                <ele>43.400000</ele>
                <time>2016-11-26T06:32:50Z</time>
            </trkpt>
            <trkpt lon="100.919085" lat="12.765347">
                <ele>42.440000</ele>
                <time>2016-11-26T06:32:53Z</time>
            </trkpt>
            <trkpt lon="100.919663" lat="12.765148">
                <ele>39.550000</ele>
                <time>2016-11-26T06:33:03Z</time>
            </trkpt>
            <trkpt lon="100.919777" lat="12.765183">
                <ele>39.550000</ele>
                <time>2016-11-26T06:33:05Z</time>
            </trkpt>
            <trkpt lon="100.921793" lat="12.766565">
                <ele>35.710000</ele>
                <time>2016-11-26T06:33:49Z</time>
            </trkpt>
            <trkpt lon="100.922669" lat="12.767009">
                <ele>34.740000</ele>
                <time>2016-11-26T06:34:07Z</time>
            </trkpt>
            <trkpt lon="100.922724" lat="12.767020">
                <ele>34.260000</ele>
                <time>2016-11-26T06:34:08Z</time>
            </trkpt>
            <trkpt lon="100.924806" lat="12.766371">
                <ele>30.420000</ele>
                <time>2016-11-26T06:34:45Z</time>
            </trkpt>
            <trkpt lon="100.925816" lat="12.765797">
                <ele>34.740000</ele>
                <time>2016-11-26T06:35:16Z</time>
            </trkpt>
            <trkpt lon="100.926434" lat="12.765579">
                <ele>31.860000</ele>
                <time>2016-11-26T06:35:32Z</time>
            </trkpt>
            <trkpt lon="100.927309" lat="12.765798">
                <ele>31.860000</ele>
                <time>2016-11-26T06:35:50Z</time>
            </trkpt>
            <trkpt lon="100.928143" lat="12.765478">
                <ele>31.860000</ele>
                <time>2016-11-26T06:36:08Z</time>
            </trkpt>
            <trkpt lon="100.928207" lat="12.765260">
                <ele>31.860000</ele>
                <time>2016-11-26T06:36:13Z</time>
            </trkpt>
            <trkpt lon="100.927878" lat="12.763639">
                <ele>35.710000</ele>
                <time>2016-11-26T06:36:53Z</time>
            </trkpt>
            <trkpt lon="100.927670" lat="12.762192">
                <ele>34.740000</ele>
                <time>2016-11-26T06:37:27Z</time>
            </trkpt>
            <trkpt lon="100.927289" lat="12.760747">
                <ele>33.780000</ele>
                <time>2016-11-26T06:38:00Z</time>
            </trkpt>
            <trkpt lon="100.927431" lat="12.760695">
                <ele>33.780000</ele>
                <time>2016-11-26T06:38:03Z</time>
            </trkpt>
            <trkpt lon="100.928298" lat="12.760536">
                <ele>32.820000</ele>
                <time>2016-11-26T06:38:19Z</time>
            </trkpt>
            <trkpt lon="100.928829" lat="12.760067">
                <ele>32.820000</ele>
                <time>2016-11-26T06:38:33Z</time>
            </trkpt>
            <trkpt lon="100.930169" lat="12.756950">
                <ele>34.740000</ele>
                <time>2016-11-26T06:39:46Z</time>
            </trkpt>
            <trkpt lon="100.929900" lat="12.756630">
                <ele>36.190000</ele>
                <time>2016-11-26T06:40:00Z</time>
            </trkpt>
            <trkpt lon="100.929305" lat="12.756227">
                <ele>39.550000</ele>
                <time>2016-11-26T06:40:29Z</time>
            </trkpt>
            <trkpt lon="100.929341" lat="12.756153">
                <ele>40.030000</ele>
                <time>2016-11-26T06:40:33Z</time>
            </trkpt>
            <trkpt lon="100.933284" lat="12.758291">
                <ele>41.470000</ele>
                <time>2016-11-26T06:43:08Z</time>
            </trkpt>
            <trkpt lon="100.933509" lat="12.758798">
                <ele>41.950000</ele>
                <time>2016-11-26T06:44:42Z</time>
            </trkpt>
            <trkpt lon="100.933289" lat="12.759019">
                <ele>41.470000</ele>
                <time>2016-11-26T06:44:55Z</time>
            </trkpt>
            <trkpt lon="100.933391" lat="12.759832">
                <ele>41.950000</ele>
                <time>2016-11-26T06:45:28Z</time>
            </trkpt>
            <trkpt lon="100.934928" lat="12.759619">
                <ele>48.680000</ele>
                <time>2016-11-26T06:46:38Z</time>
            </trkpt>
            <trkpt lon="100.935311" lat="12.759405">
                <ele>51.570000</ele>
                <time>2016-11-26T06:46:56Z</time>
            </trkpt>
            <trkpt lon="100.936089" lat="12.759006">
                <ele>50.610000</ele>
                <time>2016-11-26T06:47:26Z</time>
            </trkpt>
            <trkpt lon="100.937979" lat="12.758530">
                <ele>58.780000</ele>
                <time>2016-11-26T06:48:39Z</time>
            </trkpt>
            <trkpt lon="100.938715" lat="12.758453">
                <ele>61.660000</ele>
                <time>2016-11-26T06:49:08Z</time>
            </trkpt>
            <trkpt lon="100.940835" lat="12.757769">
                <ele>60.220000</ele>
                <time>2016-11-26T06:50:07Z</time>
            </trkpt>
            <trkpt lon="100.941706" lat="12.758211">
                <ele>61.660000</ele>
                <time>2016-11-26T06:50:38Z</time>
            </trkpt>
            <trkpt lon="100.941879" lat="12.759032">
                <ele>64.550000</ele>
                <time>2016-11-26T06:51:27Z</time>
            </trkpt>
            <trkpt lon="100.942432" lat="12.759397">
                <ele>76.560000</ele>
                <time>2016-11-26T06:52:52Z</time>
            </trkpt>
            <trkpt lon="100.942919" lat="12.759423">
                <ele>78.000000</ele>
                <time>2016-11-26T06:53:30Z</time>
            </trkpt>
            <trkpt lon="100.943313" lat="12.758836">
                <ele>75.120000</ele>
                <time>2016-11-26T06:54:15Z</time>
            </trkpt>
            <trkpt lon="100.943290" lat="12.758645">
                <ele>78.000000</ele>
                <time>2016-11-26T06:54:39Z</time>
            </trkpt>
            <trkpt lon="100.942931" lat="12.758438">
                <ele>75.120000</ele>
                <time>2016-11-26T06:54:54Z</time>
            </trkpt>
            <trkpt lon="100.942955" lat="12.758105">
                <ele>70.790000</ele>
                <time>2016-11-26T06:55:10Z</time>
            </trkpt>
            <trkpt lon="100.943458" lat="12.757491">
                <ele>68.870000</ele>
                <time>2016-11-26T06:55:34Z</time>
            </trkpt>
            <trkpt lon="100.943785" lat="12.756597">
                <ele>75.600000</ele>
                <time>2016-11-26T06:56:28Z</time>
            </trkpt>
            <trkpt lon="100.943649" lat="12.756339">
                <ele>74.160000</ele>
                <time>2016-11-26T06:56:41Z</time>
            </trkpt>
            <trkpt lon="100.943443" lat="12.755710">
                <ele>68.870000</ele>
                <time>2016-11-26T06:56:54Z</time>
            </trkpt>
            <trkpt lon="100.943096" lat="12.755256">
                <ele>64.070000</ele>
                <time>2016-11-26T06:57:12Z</time>
            </trkpt>
            <trkpt lon="100.942887" lat="12.754813">
                <ele>56.860000</ele>
                <time>2016-11-26T06:57:28Z</time>
            </trkpt>
            <trkpt lon="100.942939" lat="12.754459">
                <ele>53.490000</ele>
                <time>2016-11-26T06:57:41Z</time>
            </trkpt>
            <trkpt lon="100.943437" lat="12.754308">
                <ele>57.340000</ele>
                <time>2016-11-26T06:58:51Z</time>
            </trkpt>
            <trkpt lon="100.943913" lat="12.754197">
                <ele>53.490000</ele>
                <time>2016-11-26T06:59:07Z</time>
            </trkpt>
            <trkpt lon="100.945389" lat="12.754493">
                <ele>41.950000</ele>
                <time>2016-11-26T07:00:36Z</time>
            </trkpt>
            <trkpt lon="100.945581" lat="12.753666">
                <ele>46.760000</ele>
                <time>2016-11-26T07:01:17Z</time>
            </trkpt>
            <trkpt lon="100.942908" lat="12.752605">
                <ele>44.840000</ele>
                <time>2016-11-26T07:02:38Z</time>
            </trkpt>
            <trkpt lon="100.942542" lat="12.752706">
                <ele>43.880000</ele>
                <time>2016-11-26T07:02:50Z</time>
            </trkpt>
            <trkpt lon="100.941592" lat="12.753438">
                <ele>40.990000</ele>
                <time>2016-11-26T07:03:28Z</time>
            </trkpt>
            <trkpt lon="100.941085" lat="12.753781">
                <ele>39.550000</ele>
                <time>2016-11-26T07:03:56Z</time>
            </trkpt>
            <trkpt lon="100.939154" lat="12.754163">
                <ele>39.550000</ele>
                <time>2016-11-26T07:06:02Z</time>
            </trkpt>
            <trkpt lon="100.938888" lat="12.754457">
                <ele>40.510000</ele>
                <time>2016-11-26T07:06:16Z</time>
            </trkpt>
            <trkpt lon="100.938832" lat="12.754994">
                <ele>39.550000</ele>
                <time>2016-11-26T07:06:43Z</time>
            </trkpt>
            <trkpt lon="100.938363" lat="12.754492">
                <ele>40.510000</ele>
                <time>2016-11-26T07:07:16Z</time>
            </trkpt>
            <trkpt lon="100.938181" lat="12.754046">
                <ele>40.510000</ele>
                <time>2016-11-26T07:07:31Z</time>
            </trkpt>
            <trkpt lon="100.937834" lat="12.753158">
                <ele>41.470000</ele>
                <time>2016-11-26T07:09:32Z</time>
            </trkpt>
            <trkpt lon="100.937654" lat="12.752573">
                <ele>39.070000</ele>
                <time>2016-11-26T07:10:12Z</time>
            </trkpt>
            <trkpt lon="100.937660" lat="12.752493">
                <ele>37.150000</ele>
                <time>2016-11-26T07:12:02Z</time>
            </trkpt>
            <trkpt lon="100.937650" lat="12.752487">
                <ele>40.990000</ele>
                <time>2016-11-26T07:13:53Z</time>
            </trkpt>
            <trkpt lon="100.937576" lat="12.752486">
                <ele>39.550000</ele>
                <time>2016-11-26T07:14:05Z</time>
            </trkpt>
            <trkpt lon="100.937127" lat="12.752258">
                <ele>38.110000</ele>
                <time>2016-11-26T07:14:25Z</time>
            </trkpt>
            <trkpt lon="100.936373" lat="12.750385">
                <ele>40.030000</ele>
                <time>2016-11-26T07:15:31Z</time>
            </trkpt>
            <trkpt lon="100.936302" lat="12.750096">
                <ele>39.070000</ele>
                <time>2016-11-26T07:15:42Z</time>
            </trkpt>
            <trkpt lon="100.936832" lat="12.749912">
                <ele>41.470000</ele>
                <time>2016-11-26T07:16:07Z</time>
            </trkpt>
            <trkpt lon="100.936959" lat="12.749606">
                <ele>41.470000</ele>
                <time>2016-11-26T07:16:19Z</time>
            </trkpt>
            <trkpt lon="100.936869" lat="12.749196">
                <ele>42.440000</ele>
                <time>2016-11-26T07:16:31Z</time>
            </trkpt>
            <trkpt lon="100.936855" lat="12.748926">
                <ele>41.950000</ele>
                <time>2016-11-26T07:16:43Z</time>
            </trkpt>
            <trkpt lon="100.936457" lat="12.748736">
                <ele>41.950000</ele>
                <time>2016-11-26T07:16:55Z</time>
            </trkpt>
            <trkpt lon="100.934577" lat="12.747934">
                <ele>39.550000</ele>
                <time>2016-11-26T07:17:37Z</time>
            </trkpt>
            <trkpt lon="100.934183" lat="12.747981">
                <ele>41.470000</ele>
                <time>2016-11-26T07:17:50Z</time>
            </trkpt>
            <trkpt lon="100.933822" lat="12.748264">
                <ele>43.880000</ele>
                <time>2016-11-26T07:18:05Z</time>
            </trkpt>
            <trkpt lon="100.933432" lat="12.748688">
                <ele>44.840000</ele>
                <time>2016-11-26T07:18:22Z</time>
            </trkpt>
            <trkpt lon="100.933170" lat="12.748674">
                <ele>45.800000</ele>
                <time>2016-11-26T07:18:36Z</time>
            </trkpt>
            <trkpt lon="100.931950" lat="12.749962">
                <ele>47.240000</ele>
                <time>2016-11-26T07:19:27Z</time>
            </trkpt>
            <trkpt lon="100.931550" lat="12.750103">
                <ele>47.720000</ele>
                <time>2016-11-26T07:19:39Z</time>
            </trkpt>
            <trkpt lon="100.931143" lat="12.748221">
                <ele>65.030000</ele>
                <time>2016-11-26T07:21:44Z</time>
            </trkpt>
            <trkpt lon="100.930867" lat="12.747972">
                <ele>73.680000</ele>
                <time>2016-11-26T07:22:15Z</time>
            </trkpt>
            <trkpt lon="100.930782" lat="12.747935">
                <ele>74.160000</ele>
                <time>2016-11-26T07:22:21Z</time>
            </trkpt>
            <trkpt lon="100.930191" lat="12.747677">
                <ele>72.720000</ele>
                <time>2016-11-26T07:22:54Z</time>
            </trkpt>
            <trkpt lon="100.929993" lat="12.747469">
                <ele>74.640000</ele>
                <time>2016-11-26T07:23:08Z</time>
            </trkpt>
            <trkpt lon="100.929944" lat="12.746996">
                <ele>77.040000</ele>
                <time>2016-11-26T07:23:59Z</time>
            </trkpt>
            <trkpt lon="100.929798" lat="12.746145">
                <ele>77.520000</ele>
                <time>2016-11-26T07:24:35Z</time>
            </trkpt>
            <trkpt lon="100.929663" lat="12.745769">
                <ele>76.560000</ele>
                <time>2016-11-26T07:24:51Z</time>
            </trkpt>
            <trkpt lon="100.928782" lat="12.745691">
                <ele>71.760000</ele>
                <time>2016-11-26T07:25:21Z</time>
            </trkpt>
            <trkpt lon="100.928629" lat="12.746472">
                <ele>65.990000</ele>
                <time>2016-11-26T07:25:58Z</time>
            </trkpt>
            <trkpt lon="100.929622" lat="12.747874">
                <ele>65.510000</ele>
                <time>2016-11-26T07:27:13Z</time>
            </trkpt>
            <trkpt lon="100.930679" lat="12.750352">
                <ele>50.130000</ele>
                <time>2016-11-26T07:28:33Z</time>
            </trkpt>
            <trkpt lon="100.930668" lat="12.750486">
                <ele>49.650000</ele>
                <time>2016-11-26T07:28:40Z</time>
            </trkpt>
            <trkpt lon="100.930115" lat="12.750668">
                <ele>50.610000</ele>
                <time>2016-11-26T07:28:54Z</time>
            </trkpt>
            <trkpt lon="100.928441" lat="12.751208">
                <ele>48.680000</ele>
                <time>2016-11-26T07:29:23Z</time>
            </trkpt>
            <trkpt lon="100.927811" lat="12.751287">
                <ele>49.160000</ele>
                <time>2016-11-26T07:29:39Z</time>
            </trkpt>
            <trkpt lon="100.924815" lat="12.751236">
                <ele>57.820000</ele>
                <time>2016-11-26T07:31:09Z</time>
            </trkpt>
            <trkpt lon="100.923901" lat="12.751601">
                <ele>61.180000</ele>
                <time>2016-11-26T07:31:42Z</time>
            </trkpt>
            <trkpt lon="100.923291" lat="12.751929">
                <ele>62.620000</ele>
                <time>2016-11-26T07:32:02Z</time>
            </trkpt>
            <trkpt lon="100.921812" lat="12.752412">
                <ele>61.180000</ele>
                <time>2016-11-26T07:32:40Z</time>
            </trkpt>
            <trkpt lon="100.921056" lat="12.752345">
                <ele>60.700000</ele>
                <time>2016-11-26T07:32:56Z</time>
            </trkpt>
            <trkpt lon="100.919345" lat="12.752127">
                <ele>57.820000</ele>
                <time>2016-11-26T07:33:56Z</time>
            </trkpt>
            <trkpt lon="100.918897" lat="12.754590">
                <ele>51.570000</ele>
                <time>2016-11-26T07:35:58Z</time>
            </trkpt>
            <trkpt lon="100.917716" lat="12.755354">
                <ele>51.090000</ele>
                <time>2016-11-26T07:36:25Z</time>
            </trkpt>
            <trkpt lon="100.916763" lat="12.755887">
                <ele>48.680000</ele>
                <time>2016-11-26T07:36:45Z</time>
            </trkpt>
            <trkpt lon="100.916616" lat="12.755920">
                <ele>48.200000</ele>
                <time>2016-11-26T07:36:49Z</time>
            </trkpt>
            <trkpt lon="100.916012" lat="12.755087">
                <ele>46.280000</ele>
                <time>2016-11-26T07:37:12Z</time>
            </trkpt>
            <trkpt lon="100.915872" lat="12.754869">
                <ele>45.320000</ele>
                <time>2016-11-26T07:37:19Z</time>
            </trkpt>
            <trkpt lon="100.914944" lat="12.755151">
                <ele>41.470000</ele>
                <time>2016-11-26T07:37:37Z</time>
            </trkpt>
            <trkpt lon="100.914434" lat="12.755387">
                <ele>41.950000</ele>
                <time>2016-11-26T07:37:47Z</time>
            </trkpt>
            <trkpt lon="100.914428" lat="12.756289">
                <ele>40.990000</ele>
                <time>2016-11-26T07:38:07Z</time>
            </trkpt>
            <trkpt lon="100.914333" lat="12.756328">
                <ele>40.510000</ele>
                <time>2016-11-26T07:38:09Z</time>
            </trkpt>
            <trkpt lon="100.914223" lat="12.756351">
                <ele>40.510000</ele>
                <time>2016-11-26T07:38:11Z</time>
            </trkpt>
            <trkpt lon="100.912908" lat="12.756649">
                <ele>35.230000</ele>
                <time>2016-11-26T07:38:35Z</time>
            </trkpt>
            <trkpt lon="100.913275" lat="12.757138">
                <ele>33.780000</ele>
                <time>2016-11-26T07:38:53Z</time>
            </trkpt>
            <trkpt lon="100.913244" lat="12.757692">
                <ele>31.860000</ele>
                <time>2016-11-26T07:39:04Z</time>
            </trkpt>
            <trkpt lon="100.913504" lat="12.758685">
                <ele>28.500000</ele>
                <time>2016-11-26T07:39:20Z</time>
            </trkpt>
            <trkpt lon="100.914371" lat="12.759249">
                <ele>28.980000</ele>
                <time>2016-11-26T07:39:41Z</time>
            </trkpt>
            <trkpt lon="100.914710" lat="12.759258">
                <ele>29.460000</ele>
                <time>2016-11-26T07:39:51Z</time>
            </trkpt>
            <trkpt lon="100.915205" lat="12.759117">
                <ele>32.820000</ele>
                <time>2016-11-26T07:40:09Z</time>
            </trkpt>
            <trkpt lon="100.915221" lat="12.759139">
                <ele>32.820000</ele>
                <time>2016-11-26T07:40:10Z</time>
            </trkpt>
            <trkpt lon="100.915470" lat="12.761235">
                <ele>30.420000</ele>
                <time>2016-11-26T07:40:56Z</time>
            </trkpt>
            <trkpt lon="100.915036" lat="12.762749">
                <ele>34.740000</ele>
                <time>2016-11-26T07:41:39Z</time>
            </trkpt>
            <trkpt lon="100.913939" lat="12.762392">
                <ele>30.420000</ele>
                <time>2016-11-26T07:42:01Z</time>
            </trkpt>
            <trkpt lon="100.913127" lat="12.762320">
                <ele>28.500000</ele>
                <time>2016-11-26T07:42:14Z</time>
            </trkpt>
            <trkpt lon="100.910370" lat="12.761817">
                <ele>19.840000</ele>
                <time>2016-11-26T07:42:54Z</time>
            </trkpt>
            <trkpt lon="100.905680" lat="12.763621">
                <ele>14.080000</ele>
                <time>2016-11-26T07:44:28Z</time>
            </trkpt>
            <trkpt lon="100.903051" lat="12.764794">
                <ele>8.790000</ele>
                <time>2016-11-26T07:45:26Z</time>
            </trkpt>
            <trkpt lon="100.901852" lat="12.764900">
                <ele>8.310000</ele>
                <time>2016-11-26T07:45:53Z</time>
            </trkpt>
            <trkpt lon="100.901213" lat="12.764098">
                <ele>9.270000</ele>
                <time>2016-11-26T07:46:15Z</time>
            </trkpt>
            <trkpt lon="100.901036" lat="12.764005">
                <ele>9.270000</ele>
                <time>2016-11-26T07:46:19Z</time>
            </trkpt>
            <trkpt lon="100.899195" lat="12.763630">
                <ele>5.910000</ele>
                <time>2016-11-26T07:46:58Z</time>
            </trkpt>
            <trkpt lon="100.898876" lat="12.763531">
                <ele>4.460000</ele>
                <time>2016-11-26T07:47:05Z</time>
            </trkpt>
            <trkpt lon="100.898518" lat="12.763568">
                <ele>5.420000</ele>
                <time>2016-11-26T07:47:13Z</time>
            </trkpt>
            <trkpt lon="100.898205" lat="12.763362">
                <ele>6.390000</ele>
                <time>2016-11-26T07:47:22Z</time>
            </trkpt>
            <trkpt lon="100.896527" lat="12.763672">
                <ele>6.870000</ele>
                <time>2016-11-26T07:47:59Z</time>
            </trkpt>
            <trkpt lon="100.895354" lat="12.763481">
                <ele>7.350000</ele>
                <time>2016-11-26T07:48:24Z</time>
            </trkpt>
            <trkpt lon="100.894477" lat="12.763368">
                <ele>6.390000</ele>
                <time>2016-11-26T07:48:45Z</time>
            </trkpt>
            <trkpt lon="100.893519" lat="12.762939">
                <ele>8.790000</ele>
                <time>2016-11-26T07:49:14Z</time>
            </trkpt>
            <trkpt lon="100.892944" lat="12.762776">
                <ele>8.790000</ele>
                <time>2016-11-26T07:49:30Z</time>
            </trkpt>
            <trkpt lon="100.892089" lat="12.762896">
                <ele>10.230000</ele>
                <time>2016-11-26T08:01:30Z</time>
            </trkpt>
            <trkpt lon="100.891443" lat="12.762079">
                <ele>6.390000</ele>
                <time>2016-11-26T08:04:21Z</time>
            </trkpt>
            <trkpt lon="100.891160" lat="12.761283">
                <ele>7.830000</ele>
                <time>2016-11-26T08:04:48Z</time>
            </trkpt>
            <trkpt lon="100.890979" lat="12.761258">
                <ele>7.350000</ele>
                <time>2016-11-26T08:04:53Z</time>
            </trkpt>
            <trkpt lon="100.890465" lat="12.761313">
                <ele>6.870000</ele>
                <time>2016-11-26T08:05:04Z</time>
            </trkpt>
            <trkpt lon="100.890315" lat="12.761287">
                <ele>6.870000</ele>
                <time>2016-11-26T08:05:07Z</time>
            </trkpt>
            <trkpt lon="100.890219" lat="12.761244">
                <ele>6.390000</ele>
                <time>2016-11-26T08:05:09Z</time>
            </trkpt>
            <trkpt lon="100.889298" lat="12.760875">
                <ele>6.870000</ele>
                <time>2016-11-26T08:05:30Z</time>
            </trkpt>
            <trkpt lon="100.888071" lat="12.759873">
                <ele>9.750000</ele>
                <time>2016-11-26T08:06:01Z</time>
            </trkpt>
            <trkpt lon="100.887157" lat="12.759096">
                <ele>9.750000</ele>
                <time>2016-11-26T08:06:26Z</time>
            </trkpt>
            <trkpt lon="100.886314" lat="12.758825">
                <ele>6.870000</ele>
                <time>2016-11-26T08:06:45Z</time>
            </trkpt>
            <trkpt lon="100.885100" lat="12.758004">
                <ele>8.310000</ele>
                <time>2016-11-26T08:07:17Z</time>
            </trkpt>
            <trkpt lon="100.884532" lat="12.757952">
                <ele>6.870000</ele>
                <time>2016-11-26T08:07:30Z</time>
            </trkpt>
            <trkpt lon="100.884149" lat="12.758166">
                <ele>5.910000</ele>
                <time>2016-11-26T08:07:39Z</time>
            </trkpt>
            <trkpt lon="100.882492" lat="12.758459">
                <ele>5.420000</ele>
                <time>2016-11-26T08:08:11Z</time>
            </trkpt>
            <trkpt lon="100.881909" lat="12.758974">
                <ele>3.020000</ele>
                <time>2016-11-26T08:08:25Z</time>
            </trkpt>
            <trkpt lon="100.881425" lat="12.759370">
                <ele>3.020000</ele>
                <time>2016-11-26T08:08:36Z</time>
            </trkpt>
            <trkpt lon="100.880547" lat="12.759576">
                <ele>3.980000</ele>
                <time>2016-11-26T08:08:53Z</time>
            </trkpt>
            <trkpt lon="100.880194" lat="12.759595">
                <ele>3.980000</ele>
                <time>2016-11-26T08:09:01Z</time>
            </trkpt>
            <trkpt lon="100.880088" lat="12.757615">
                <ele>6.870000</ele>
                <time>2016-11-26T08:09:42Z</time>
            </trkpt>
            <trkpt lon="100.879804" lat="12.756410">
                <ele>5.420000</ele>
                <time>2016-11-26T08:10:06Z</time>
            </trkpt>
            <trkpt lon="100.879749" lat="12.756354">
                <ele>4.940000</ele>
                <time>2016-11-26T08:10:08Z</time>
            </trkpt>
            <trkpt lon="100.879404" lat="12.756302">
                <ele>3.980000</ele>
                <time>2016-11-26T08:10:20Z</time>
            </trkpt>
            <trkpt lon="100.878856" lat="12.756532">
                <ele>4.940000</ele>
                <time>2016-11-26T08:10:39Z</time>
            </trkpt>
            <trkpt lon="100.877549" lat="12.756854">
                <ele>4.940000</ele>
                <time>2016-11-26T08:11:23Z</time>
            </trkpt>
            <trkpt lon="100.875934" lat="12.756427">
                <ele>15.520000</ele>
                <time>2016-11-26T08:12:34Z</time>
            </trkpt>
            <trkpt lon="100.876628" lat="12.754965">
                <ele>8.310000</ele>
                <time>2016-11-26T08:14:26Z</time>
            </trkpt>
            <trkpt lon="100.876622" lat="12.754956">
                <ele>10.230000</ele>
                <time>2016-11-26T08:15:19Z</time>
            </trkpt>
            <trkpt lon="100.876596" lat="12.754907">
                <ele>10.230000</ele>
                <time>2016-11-26T08:15:31Z</time>
            </trkpt>
            <trkpt lon="100.876519" lat="12.754787">
                <ele>10.710000</ele>
                <time>2016-11-26T08:15:42Z</time>
            </trkpt>
            <trkpt lon="100.876494" lat="12.754700">
                <ele>14.080000</ele>
                <time>2016-11-26T08:15:54Z</time>
            </trkpt>
            <trkpt lon="100.876481" lat="12.754586">
                <ele>14.560000</ele>
                <time>2016-11-26T08:16:11Z</time>
            </trkpt>
            <trkpt lon="100.876374" lat="12.754373">
                <ele>17.440000</ele>
                <time>2016-11-26T08:16:27Z</time>
            </trkpt>
            <trkpt lon="100.876295" lat="12.754263">
                <ele>17.920000</ele>
                <time>2016-11-26T08:16:33Z</time>
            </trkpt>
            <trkpt lon="100.876113" lat="12.754267">
                <ele>17.440000</ele>
                <time>2016-11-26T08:16:45Z</time>
            </trkpt>
            <trkpt lon="100.875843" lat="12.754044">
                <ele>22.250000</ele>
                <time>2016-11-26T08:17:06Z</time>
            </trkpt>
            <trkpt lon="100.875567" lat="12.753711">
                <ele>23.690000</ele>
                <time>2016-11-26T08:17:35Z</time>
            </trkpt>
            <trkpt lon="100.875790" lat="12.753369">
                <ele>22.250000</ele>
                <time>2016-11-26T08:18:29Z</time>
            </trkpt>
            <trkpt lon="100.875945" lat="12.753028">
                <ele>22.250000</ele>
                <time>2016-11-26T08:18:44Z</time>
            </trkpt>
            <trkpt lon="100.875909" lat="12.752712">
                <ele>23.690000</ele>
                <time>2016-11-26T08:18:56Z</time>
            </trkpt>
            <trkpt lon="100.875457" lat="12.752061">
                <ele>31.860000</ele>
                <time>2016-11-26T08:19:20Z</time>
            </trkpt>
            <trkpt lon="100.875194" lat="12.751727">
                <ele>32.340000</ele>
                <time>2016-11-26T08:19:34Z</time>
            </trkpt>
            <trkpt lon="100.874703" lat="12.751337">
                <ele>21.770000</ele>
                <time>2016-11-26T08:20:24Z</time>
            </trkpt>
            <trkpt lon="100.873172" lat="12.751891">
                <ele>23.690000</ele>
                <time>2016-11-26T08:21:18Z</time>
            </trkpt>
            <trkpt lon="100.873255" lat="12.752606">
                <ele>33.780000</ele>
                <time>2016-11-26T08:21:46Z</time>
            </trkpt>
            <trkpt lon="100.872933" lat="12.753542">
                <ele>43.880000</ele>
                <time>2016-11-26T08:22:43Z</time>
            </trkpt>
            <trkpt lon="100.873249" lat="12.754594">
                <ele>51.570000</ele>
                <time>2016-11-26T08:23:37Z</time>
            </trkpt>
            <trkpt lon="100.873436" lat="12.754956">
                <ele>53.010000</ele>
                <time>2016-11-26T08:23:52Z</time>
            </trkpt>
            <trkpt lon="100.873661" lat="12.755584">
                <ele>47.720000</ele>
                <time>2016-11-26T08:24:15Z</time>
            </trkpt>
            <trkpt lon="100.873686" lat="12.756493">
                <ele>43.400000</ele>
                <time>2016-11-26T08:24:42Z</time>
            </trkpt>
            <trkpt lon="100.873786" lat="12.757693">
                <ele>40.030000</ele>
                <time>2016-11-26T08:25:16Z</time>
            </trkpt>
            <trkpt lon="100.873781" lat="12.758077">
                <ele>37.630000</ele>
                <time>2016-11-26T08:25:28Z</time>
            </trkpt>
            <trkpt lon="100.874139" lat="12.760576">
                <ele>23.210000</ele>
                <time>2016-11-26T08:26:50Z</time>
            </trkpt>
            <trkpt lon="100.874396" lat="12.760283">
                <ele>15.040000</ele>
                <time>2016-11-26T08:27:51Z</time>
            </trkpt>
            <trkpt lon="100.874198" lat="12.759943">
                <ele>13.600000</ele>
                <time>2016-11-26T08:28:16Z</time>
            </trkpt>
            <trkpt lon="100.874279" lat="12.759544">
                <ele>15.040000</ele>
                <time>2016-11-26T08:28:33Z</time>
            </trkpt>
            <trkpt lon="100.874697" lat="12.759408">
                <ele>19.840000</ele>
                <time>2016-11-26T08:29:02Z</time>
            </trkpt>
            <trkpt lon="100.874779" lat="12.759314">
                <ele>16.960000</ele>
                <time>2016-11-26T08:29:12Z</time>
            </trkpt>
            <trkpt lon="100.874552" lat="12.758819">
                <ele>15.520000</ele>
                <time>2016-11-26T08:30:08Z</time>
            </trkpt>
            <trkpt lon="100.874330" lat="12.758877">
                <ele>15.040000</ele>
                <time>2016-11-26T08:30:41Z</time>
            </trkpt>
            <trkpt lon="100.874192" lat="12.758743">
                <ele>19.360000</ele>
                <time>2016-11-26T08:30:55Z</time>
            </trkpt>
            <trkpt lon="100.874241" lat="12.758509">
                <ele>23.690000</ele>
                <time>2016-11-26T08:31:28Z</time>
            </trkpt>
            <trkpt lon="100.874432" lat="12.758548">
                <ele>25.130000</ele>
                <time>2016-11-26T08:31:45Z</time>
            </trkpt>
            <trkpt lon="100.874698" lat="12.758304">
                <ele>18.880000</ele>
                <time>2016-11-26T08:32:10Z</time>
            </trkpt>
            <trkpt lon="100.874834" lat="12.758334">
                <ele>17.440000</ele>
                <time>2016-11-26T08:32:18Z</time>
            </trkpt>
            <trkpt lon="100.874961" lat="12.758395">
                <ele>17.440000</ele>
                <time>2016-11-26T08:32:25Z</time>
            </trkpt>
            <trkpt lon="100.874905" lat="12.758492">
                <ele>15.520000</ele>
                <time>2016-11-26T08:32:38Z</time>
            </trkpt>
            <trkpt lon="100.874769" lat="12.758408">
                <ele>17.440000</ele>
                <time>2016-11-26T08:33:12Z</time>
            </trkpt>
            <trkpt lon="100.874797" lat="12.758515">
                <ele>16.480000</ele>
                <time>2016-11-26T08:33:29Z</time>
            </trkpt>
            <trkpt lon="100.874657" lat="12.758549">
                <ele>16.960000</ele>
                <time>2016-11-26T08:33:51Z</time>
            </trkpt>
            <trkpt lon="100.874649" lat="12.758509">
                <ele>18.880000</ele>
                <time>2016-11-26T08:34:06Z</time>
            </trkpt>
            <trkpt lon="100.874693" lat="12.758627">
                <ele>18.880000</ele>
                <time>2016-11-26T08:34:36Z</time>
            </trkpt>
            <trkpt lon="100.874800" lat="12.758943">
                <ele>14.080000</ele>
                <time>2016-11-26T08:35:32Z</time>
            </trkpt>
            <trkpt lon="100.874833" lat="12.758872">
                <ele>12.630000</ele>
                <time>2016-11-26T08:35:54Z</time>
            </trkpt>
            <trkpt lon="100.874834" lat="12.758610">
                <ele>16.480000</ele>
                <time>2016-11-26T08:36:40Z</time>
            </trkpt>
            <trkpt lon="100.874930" lat="12.758708">
                <ele>16.960000</ele>
                <time>2016-11-26T08:37:30Z</time>
            </trkpt>
            <trkpt lon="100.874986" lat="12.758722">
                <ele>15.040000</ele>
                <time>2016-11-26T08:37:42Z</time>
            </trkpt>
            <trkpt lon="100.875144" lat="12.758821">
                <ele>13.120000</ele>
                <time>2016-11-26T08:37:55Z</time>
            </trkpt>
            <trkpt lon="100.875349" lat="12.758807">
                <ele>14.080000</ele>
                <time>2016-11-26T08:38:21Z</time>
            </trkpt>
            <trkpt lon="100.875591" lat="12.758817">
                <ele>8.790000</ele>
                <time>2016-11-26T08:38:42Z</time>
            </trkpt>
            <trkpt lon="100.875494" lat="12.758619">
                <ele>10.230000</ele>
                <time>2016-11-26T08:39:37Z</time>
            </trkpt>
            <trkpt lon="100.875247" lat="12.758531">
                <ele>8.790000</ele>
                <time>2016-11-26T08:40:14Z</time>
            </trkpt>
            <trkpt lon="100.875140" lat="12.758425">
                <ele>11.670000</ele>
                <time>2016-11-26T08:40:30Z</time>
            </trkpt>
            <trkpt lon="100.875237" lat="12.758191">
                <ele>17.440000</ele>
                <time>2016-11-26T08:41:11Z</time>
            </trkpt>
            <trkpt lon="100.875197" lat="12.758044">
                <ele>17.920000</ele>
                <time>2016-11-26T08:41:27Z</time>
            </trkpt>
            <trkpt lon="100.874891" lat="12.758165">
                <ele>17.440000</ele>
                <time>2016-11-26T08:42:18Z</time>
            </trkpt>
            <trkpt lon="100.874734" lat="12.758035">
                <ele>18.880000</ele>
                <time>2016-11-26T08:42:49Z</time>
            </trkpt>
            <trkpt lon="100.875041" lat="12.757923">
                <ele>19.840000</ele>
                <time>2016-11-26T08:43:49Z</time>
            </trkpt>
            <trkpt lon="100.875095" lat="12.757797">
                <ele>22.250000</ele>
                <time>2016-11-26T08:44:02Z</time>
            </trkpt>
            <trkpt lon="100.875240" lat="12.757832">
                <ele>24.650000</ele>
                <time>2016-11-26T08:44:20Z</time>
            </trkpt>
            <trkpt lon="100.875280" lat="12.757954">
                <ele>25.610000</ele>
                <time>2016-11-26T08:44:31Z</time>
            </trkpt>
            <trkpt lon="100.875454" lat="12.758034">
                <ele>24.650000</ele>
                <time>2016-11-26T08:44:55Z</time>
            </trkpt>
            <trkpt lon="100.875489" lat="12.757889">
                <ele>22.730000</ele>
                <time>2016-11-26T08:45:08Z</time>
            </trkpt>
            <trkpt lon="100.875385" lat="12.757730">
                <ele>18.880000</ele>
                <time>2016-11-26T08:45:39Z</time>
            </trkpt>
            <trkpt lon="100.875566" lat="12.757524">
                <ele>17.920000</ele>
                <time>2016-11-26T08:46:04Z</time>
            </trkpt>
            <trkpt lon="100.875307" lat="12.757558">
                <ele>18.400000</ele>
                <time>2016-11-26T08:47:00Z</time>
            </trkpt>
            <trkpt lon="100.875267" lat="12.757245">
                <ele>22.250000</ele>
                <time>2016-11-26T08:47:42Z</time>
            </trkpt>
            <trkpt lon="100.875259" lat="12.757139">
                <ele>20.810000</ele>
                <time>2016-11-26T08:47:55Z</time>
            </trkpt>
            <trkpt lon="100.875271" lat="12.757025">
                <ele>22.250000</ele>
                <time>2016-11-26T08:48:10Z</time>
            </trkpt>
            <trkpt lon="100.875289" lat="12.756963">
                <ele>21.770000</ele>
                <time>2016-11-26T08:48:27Z</time>
            </trkpt>
            <trkpt lon="100.875298" lat="12.756925">
                <ele>16.480000</ele>
                <time>2016-11-26T08:49:01Z</time>
            </trkpt>
            <trkpt lon="100.875796" lat="12.757085">
                <ele>13.600000</ele>
                <time>2016-11-26T08:51:03Z</time>
            </trkpt>
            <trkpt lon="100.875980" lat="12.757377">
                <ele>12.150000</ele>
                <time>2016-11-26T08:51:58Z</time>
            </trkpt>
            <trkpt lon="100.876131" lat="12.757403">
                <ele>11.190000</ele>
                <time>2016-11-26T08:52:27Z</time>
            </trkpt>
            <trkpt lon="100.875975" lat="12.757182">
                <ele>12.630000</ele>
                <time>2016-11-26T08:53:09Z</time>
            </trkpt>
            <trkpt lon="100.875986" lat="12.756890">
                <ele>11.190000</ele>
                <time>2016-11-26T08:54:18Z</time>
            </trkpt>
            <trkpt lon="100.876158" lat="12.756910">
                <ele>11.190000</ele>
                <time>2016-11-26T08:54:41Z</time>
            </trkpt>
            <trkpt lon="100.876033" lat="12.756645">
                <ele>11.190000</ele>
                <time>2016-11-26T08:55:00Z</time>
            </trkpt>
            <trkpt lon="100.875674" lat="12.756813">
                <ele>12.630000</ele>
                <time>2016-11-26T08:55:52Z</time>
            </trkpt>
            <trkpt lon="100.875634" lat="12.756731">
                <ele>14.080000</ele>
                <time>2016-11-26T08:56:04Z</time>
            </trkpt>
            <trkpt lon="100.875332" lat="12.756654">
                <ele>14.560000</ele>
                <time>2016-11-26T08:56:53Z</time>
            </trkpt>
            <trkpt lon="100.875068" lat="12.756757">
                <ele>14.560000</ele>
                <time>2016-11-26T08:57:29Z</time>
            </trkpt>
            <trkpt lon="100.874934" lat="12.756850">
                <ele>16.480000</ele>
                <time>2016-11-26T08:57:51Z</time>
            </trkpt>
            <trkpt lon="100.874115" lat="12.757094">
                <ele>24.650000</ele>
                <time>2016-11-26T08:59:43Z</time>
            </trkpt>
            <trkpt lon="100.873791" lat="12.757052">
                <ele>26.570000</ele>
                <time>2016-11-26T09:00:26Z</time>
            </trkpt>
            <trkpt lon="100.873670" lat="12.757090">
                <ele>26.090000</ele>
                <time>2016-11-26T09:00:42Z</time>
            </trkpt>
            <trkpt lon="100.873688" lat="12.757247">
                <ele>27.050000</ele>
                <time>2016-11-26T09:00:55Z</time>
            </trkpt>
            <trkpt lon="100.873728" lat="12.758307">
                <ele>24.650000</ele>
                <time>2016-11-26T09:02:08Z</time>
            </trkpt>
            <trkpt lon="100.873517" lat="12.758215">
                <ele>22.730000</ele>
                <time>2016-11-26T09:02:54Z</time>
            </trkpt>
            <trkpt lon="100.873371" lat="12.757966">
                <ele>27.530000</ele>
                <time>2016-11-26T09:03:27Z</time>
            </trkpt>
            <trkpt lon="100.873223" lat="12.757999">
                <ele>26.090000</ele>
                <time>2016-11-26T09:03:39Z</time>
            </trkpt>
            <trkpt lon="100.873177" lat="12.758182">
                <ele>27.530000</ele>
                <time>2016-11-26T09:04:03Z</time>
            </trkpt>
            <trkpt lon="100.873187" lat="12.758317">
                <ele>30.900000</ele>
                <time>2016-11-26T09:04:12Z</time>
            </trkpt>
            <trkpt lon="100.872520" lat="12.758616">
                <ele>38.590000</ele>
                <time>2016-11-26T09:05:44Z</time>
            </trkpt>
            <trkpt lon="100.872500" lat="12.759048">
                <ele>35.710000</ele>
                <time>2016-11-26T09:07:00Z</time>
            </trkpt>
            <trkpt lon="100.872537" lat="12.759101">
                <ele>33.300000</ele>
                <time>2016-11-26T09:07:17Z</time>
            </trkpt>
            <trkpt lon="100.872752" lat="12.758827">
                <ele>29.460000</ele>
                <time>2016-11-26T09:08:18Z</time>
            </trkpt>
            <trkpt lon="100.872822" lat="12.758827">
                <ele>27.050000</ele>
                <time>2016-11-26T09:08:34Z</time>
            </trkpt>
            <trkpt lon="100.872795" lat="12.758926">
                <ele>27.530000</ele>
                <time>2016-11-26T09:08:48Z</time>
            </trkpt>
            <trkpt lon="100.872833" lat="12.759007">
                <ele>24.170000</ele>
                <time>2016-11-26T09:09:03Z</time>
            </trkpt>
            <trkpt lon="100.872954" lat="12.759022">
                <ele>23.690000</ele>
                <time>2016-11-26T09:09:20Z</time>
            </trkpt>
            <trkpt lon="100.873175" lat="12.759037">
                <ele>23.210000</ele>
                <time>2016-11-26T09:09:43Z</time>
            </trkpt>
            <trkpt lon="100.873194" lat="12.759244">
                <ele>25.610000</ele>
                <time>2016-11-26T09:09:56Z</time>
            </trkpt>
            <trkpt lon="100.873194" lat="12.759336">
                <ele>26.090000</ele>
                <time>2016-11-26T09:10:02Z</time>
            </trkpt>
            <trkpt lon="100.873068" lat="12.759710">
                <ele>16.960000</ele>
                <time>2016-11-26T09:11:08Z</time>
            </trkpt>
            <trkpt lon="100.873168" lat="12.759894">
                <ele>20.810000</ele>
                <time>2016-11-26T09:11:21Z</time>
            </trkpt>
            <trkpt lon="100.873280" lat="12.759962">
                <ele>24.170000</ele>
                <time>2016-11-26T09:11:33Z</time>
            </trkpt>
            <trkpt lon="100.873284" lat="12.759977">
                <ele>26.090000</ele>
                <time>2016-11-26T09:11:57Z</time>
            </trkpt>
            <trkpt lon="100.873319" lat="12.760011">
                <ele>24.650000</ele>
                <time>2016-11-26T09:12:08Z</time>
            </trkpt>
            <trkpt lon="100.873391" lat="12.760235">
                <ele>24.170000</ele>
                <time>2016-11-26T09:12:21Z</time>
            </trkpt>
            <trkpt lon="100.873745" lat="12.760352">
                <ele>29.460000</ele>
                <time>2016-11-26T09:12:59Z</time>
            </trkpt>
            <trkpt lon="100.873708" lat="12.760873">
                <ele>33.780000</ele>
                <time>2016-11-26T09:13:36Z</time>
            </trkpt>
            <trkpt lon="100.873641" lat="12.760923">
                <ele>37.150000</ele>
                <time>2016-11-26T09:13:51Z</time>
            </trkpt>
            <trkpt lon="100.873333" lat="12.761195">
                <ele>28.500000</ele>
                <time>2016-11-26T09:14:36Z</time>
            </trkpt>
            <trkpt lon="100.873219" lat="12.761329">
                <ele>29.940000</ele>
                <time>2016-11-26T09:14:54Z</time>
            </trkpt>
            <trkpt lon="100.873131" lat="12.761409">
                <ele>23.690000</ele>
                <time>2016-11-26T09:15:20Z</time>
            </trkpt>
            <trkpt lon="100.872938" lat="12.761699">
                <ele>22.730000</ele>
                <time>2016-11-26T09:15:41Z</time>
            </trkpt>
            <trkpt lon="100.872656" lat="12.761642">
                <ele>26.090000</ele>
                <time>2016-11-26T09:16:15Z</time>
            </trkpt>
            <trkpt lon="100.872496" lat="12.761771">
                <ele>28.980000</ele>
                <time>2016-11-26T09:16:40Z</time>
            </trkpt>
            <trkpt lon="100.872372" lat="12.761793">
                <ele>29.940000</ele>
                <time>2016-11-26T09:16:56Z</time>
            </trkpt>
            <trkpt lon="100.871795" lat="12.761562">
                <ele>34.740000</ele>
                <time>2016-11-26T09:18:10Z</time>
            </trkpt>
            <trkpt lon="100.871580" lat="12.761847">
                <ele>41.470000</ele>
                <time>2016-11-26T09:18:55Z</time>
            </trkpt>
            <trkpt lon="100.871350" lat="12.762090">
                <ele>44.360000</ele>
                <time>2016-11-26T09:19:35Z</time>
            </trkpt>
            <trkpt lon="100.871224" lat="12.762119">
                <ele>45.320000</ele>
                <time>2016-11-26T09:19:52Z</time>
            </trkpt>
            <trkpt lon="100.871133" lat="12.762170">
                <ele>45.800000</ele>
                <time>2016-11-26T09:20:06Z</time>
            </trkpt>
            <trkpt lon="100.871120" lat="12.762259">
                <ele>45.800000</ele>
                <time>2016-11-26T09:20:22Z</time>
            </trkpt>
            <trkpt lon="100.871240" lat="12.762456">
                <ele>44.360000</ele>
                <time>2016-11-26T09:21:11Z</time>
            </trkpt>
            <trkpt lon="100.871447" lat="12.762514">
                <ele>40.990000</ele>
                <time>2016-11-26T09:21:43Z</time>
            </trkpt>
            <trkpt lon="100.871549" lat="12.762534">
                <ele>33.780000</ele>
                <time>2016-11-26T09:22:55Z</time>
            </trkpt>
            <trkpt lon="100.871798" lat="12.762654">
                <ele>30.420000</ele>
                <time>2016-11-26T09:23:12Z</time>
            </trkpt>
            <trkpt lon="100.871602" lat="12.763042">
                <ele>29.460000</ele>
                <time>2016-11-26T09:24:23Z</time>
            </trkpt>
            <trkpt lon="100.871996" lat="12.763032">
                <ele>35.710000</ele>
                <time>2016-11-26T09:25:23Z</time>
            </trkpt>
            <trkpt lon="100.872324" lat="12.763388">
                <ele>39.070000</ele>
                <time>2016-11-26T09:26:21Z</time>
            </trkpt>
            <trkpt lon="100.872648" lat="12.763614">
                <ele>51.570000</ele>
                <time>2016-11-26T09:26:59Z</time>
            </trkpt>
            <trkpt lon="100.872709" lat="12.763696">
                <ele>54.450000</ele>
                <time>2016-11-26T09:27:04Z</time>
            </trkpt>
            <trkpt lon="100.872750" lat="12.763809">
                <ele>52.530000</ele>
                <time>2016-11-26T09:27:18Z</time>
            </trkpt>
            <trkpt lon="100.872782" lat="12.763965">
                <ele>41.950000</ele>
                <time>2016-11-26T09:27:34Z</time>
            </trkpt>
            <trkpt lon="100.872980" lat="12.764030">
                <ele>42.920000</ele>
                <time>2016-11-26T09:27:51Z</time>
            </trkpt>
            <trkpt lon="100.873142" lat="12.764142">
                <ele>40.510000</ele>
                <time>2016-11-26T09:28:00Z</time>
            </trkpt>
            <trkpt lon="100.873565" lat="12.764520">
                <ele>34.260000</ele>
                <time>2016-11-26T09:28:27Z</time>
            </trkpt>
            <trkpt lon="100.873649" lat="12.764803">
                <ele>31.380000</ele>
                <time>2016-11-26T09:28:41Z</time>
            </trkpt>
            <trkpt lon="100.873487" lat="12.764920">
                <ele>28.500000</ele>
                <time>2016-11-26T09:28:53Z</time>
            </trkpt>
            <trkpt lon="100.872275" lat="12.766237">
                <ele>16.000000</ele>
                <time>2016-11-26T09:30:42Z</time>
            </trkpt>
            <trkpt lon="100.872106" lat="12.766192">
                <ele>17.920000</ele>
                <time>2016-11-26T09:31:10Z</time>
            </trkpt>
            <trkpt lon="100.872231" lat="12.766030">
                <ele>23.210000</ele>
                <time>2016-11-26T09:31:49Z</time>
            </trkpt>
            <trkpt lon="100.872224" lat="12.765932">
                <ele>24.170000</ele>
                <time>2016-11-26T09:32:02Z</time>
            </trkpt>
            <trkpt lon="100.872032" lat="12.765910">
                <ele>22.250000</ele>
                <time>2016-11-26T09:32:27Z</time>
            </trkpt>
            <trkpt lon="100.871864" lat="12.765926">
                <ele>20.320000</ele>
                <time>2016-11-26T09:32:36Z</time>
            </trkpt>
            <trkpt lon="100.871771" lat="12.765751">
                <ele>18.880000</ele>
                <time>2016-11-26T09:32:47Z</time>
            </trkpt>
            <trkpt lon="100.871786" lat="12.765246">
                <ele>18.880000</ele>
                <time>2016-11-26T09:33:27Z</time>
            </trkpt>
            <trkpt lon="100.871581" lat="12.765101">
                <ele>25.610000</ele>
                <time>2016-11-26T09:33:53Z</time>
            </trkpt>
            <trkpt lon="100.871238" lat="12.764976">
                <ele>24.650000</ele>
                <time>2016-11-26T09:34:32Z</time>
            </trkpt>
            <trkpt lon="100.870898" lat="12.765031">
                <ele>26.090000</ele>
                <time>2016-11-26T09:35:16Z</time>
            </trkpt>
            <trkpt lon="100.870902" lat="12.765113">
                <ele>33.780000</ele>
                <time>2016-11-26T09:35:32Z</time>
            </trkpt>
            <trkpt lon="100.870965" lat="12.765199">
                <ele>35.710000</ele>
                <time>2016-11-26T09:35:46Z</time>
            </trkpt>
            <trkpt lon="100.871059" lat="12.765238">
                <ele>36.670000</ele>
                <time>2016-11-26T09:36:01Z</time>
            </trkpt>
            <trkpt lon="100.871112" lat="12.765431">
                <ele>34.260000</ele>
                <time>2016-11-26T09:36:28Z</time>
            </trkpt>
            <trkpt lon="100.871343" lat="12.765842">
                <ele>29.460000</ele>
                <time>2016-11-26T09:37:27Z</time>
            </trkpt>
            <trkpt lon="100.871399" lat="12.766047">
                <ele>33.300000</ele>
                <time>2016-11-26T09:37:42Z</time>
            </trkpt>
            <trkpt lon="100.871643" lat="12.766381">
                <ele>37.150000</ele>
                <time>2016-11-26T09:38:13Z</time>
            </trkpt>
            <trkpt lon="100.871566" lat="12.766605">
                <ele>31.380000</ele>
                <time>2016-11-26T09:38:47Z</time>
            </trkpt>
            <trkpt lon="100.871635" lat="12.766749">
                <ele>29.460000</ele>
                <time>2016-11-26T09:39:09Z</time>
            </trkpt>
            <trkpt lon="100.871224" lat="12.766847">
                <ele>25.610000</ele>
                <time>2016-11-26T09:39:51Z</time>
            </trkpt>
            <trkpt lon="100.871110" lat="12.767162">
                <ele>27.530000</ele>
                <time>2016-11-26T09:40:21Z</time>
            </trkpt>
            <trkpt lon="100.870402" lat="12.767637">
                <ele>26.090000</ele>
                <time>2016-11-26T09:41:47Z</time>
            </trkpt>
            <trkpt lon="100.870608" lat="12.767848">
                <ele>28.020000</ele>
                <time>2016-11-26T09:42:14Z</time>
            </trkpt>
            <trkpt lon="100.870575" lat="12.768063">
                <ele>30.420000</ele>
                <time>2016-11-26T09:42:34Z</time>
            </trkpt>
            <trkpt lon="100.870733" lat="12.768310">
                <ele>40.030000</ele>
                <time>2016-11-26T09:42:54Z</time>
            </trkpt>
            <trkpt lon="100.870825" lat="12.768388">
                <ele>39.550000</ele>
                <time>2016-11-26T09:43:08Z</time>
            </trkpt>
            <trkpt lon="100.870881" lat="12.768408">
                <ele>35.710000</ele>
                <time>2016-11-26T09:43:17Z</time>
            </trkpt>
            <trkpt lon="100.871022" lat="12.768453">
                <ele>34.260000</ele>
                <time>2016-11-26T09:43:29Z</time>
            </trkpt>
            <trkpt lon="100.871085" lat="12.768909">
                <ele>33.300000</ele>
                <time>2016-11-26T09:44:24Z</time>
            </trkpt>
            <trkpt lon="100.871666" lat="12.768691">
                <ele>5.420000</ele>
                <time>2016-11-26T09:45:56Z</time>
            </trkpt>
            <trkpt lon="100.871870" lat="12.768528">
                <ele>4.460000</ele>
                <time>2016-11-26T09:48:03Z</time>
            </trkpt>
            <trkpt lon="100.872106" lat="12.767928">
                <ele>2.540000</ele>
                <time>2016-11-26T09:48:30Z</time>
            </trkpt>
            <trkpt lon="100.872752" lat="12.766515">
                <ele>3.500000</ele>
                <time>2016-11-26T09:49:11Z</time>
            </trkpt>
            <trkpt lon="100.873102" lat="12.766134">
                <ele>3.020000</ele>
                <time>2016-11-26T09:49:22Z</time>
            </trkpt>
            <trkpt lon="100.873716" lat="12.765779">
                <ele>3.020000</ele>
                <time>2016-11-26T09:49:39Z</time>
            </trkpt>
            <trkpt lon="100.873909" lat="12.765613">
                <ele>2.540000</ele>
                <time>2016-11-26T09:49:48Z</time>
            </trkpt>
            <trkpt lon="100.873998" lat="12.765565">
                <ele>5.420000</ele>
                <time>2016-11-26T09:50:06Z</time>
            </trkpt>
            <trkpt lon="100.875114" lat="12.764595">
                <ele>4.460000</ele>
                <time>2016-11-26T09:50:50Z</time>
            </trkpt>
            <trkpt lon="100.875837" lat="12.761894">
                <ele>3.500000</ele>
                <time>2016-11-26T09:51:59Z</time>
            </trkpt>
            <trkpt lon="100.876733" lat="12.761245">
                <ele>2.060000</ele>
                <time>2016-11-26T09:52:40Z</time>
            </trkpt>
            <trkpt lon="100.877506" lat="12.760306">
                <ele>3.500000</ele>
                <time>2016-11-26T09:53:12Z</time>
            </trkpt>
            <trkpt lon="100.878146" lat="12.760032">
                <ele>3.500000</ele>
                <time>2016-11-26T09:53:28Z</time>
            </trkpt>
            <trkpt lon="100.878773" lat="12.759979">
                <ele>3.980000</ele>
                <time>2016-11-26T09:53:41Z</time>
            </trkpt>
            <trkpt lon="100.880065" lat="12.759974">
                <ele>3.020000</ele>
                <time>2016-11-26T09:54:06Z</time>
            </trkpt>
            <trkpt lon="100.880217" lat="12.759649">
                <ele>3.500000</ele>
                <time>2016-11-26T09:54:15Z</time>
            </trkpt>
            <trkpt lon="100.881214" lat="12.759448">
                <ele>2.540000</ele>
                <time>2016-11-26T09:54:38Z</time>
            </trkpt>
            <trkpt lon="100.881620" lat="12.759290">
                <ele>3.020000</ele>
                <time>2016-11-26T09:54:51Z</time>
            </trkpt>
            <trkpt lon="100.881619" lat="12.759276">
                <ele>2.540000</ele>
                <time>2016-11-26T09:54:52Z</time>
            </trkpt>
            <trkpt lon="100.881462" lat="12.759396">
                <ele>1.100000</ele>
                <time>2016-11-26T09:55:03Z</time>
            </trkpt>
            <trkpt lon="100.881533" lat="12.759618">
                <ele>1.100000</ele>
                <time>2016-11-26T09:55:10Z</time>
            </trkpt>
            <trkpt lon="100.881594" lat="12.759811">
                <ele>1.100000</ele>
                <time>2016-11-26T09:55:15Z</time>
            </trkpt>
            <trkpt lon="100.881689" lat="12.759901">
                <ele>1.580000</ele>
                <time>2016-11-26T09:55:18Z</time>
            </trkpt>
            <trkpt lon="100.882858" lat="12.759920">
                <ele>1.580000</ele>
                <time>2016-11-26T09:55:42Z</time>
            </trkpt>
            <trkpt lon="100.884540" lat="12.760692">
                <ele>7.830000</ele>
                <time>2016-11-26T09:56:19Z</time>
            </trkpt>
            <trkpt lon="100.885174" lat="12.760938">
                <ele>8.790000</ele>
                <time>2016-11-26T09:56:34Z</time>
            </trkpt>
            <trkpt lon="100.885159" lat="12.761464">
                <ele>6.390000</ele>
                <time>2016-11-26T09:56:52Z</time>
            </trkpt>
            <trkpt lon="100.888971" lat="12.762837">
                <ele>6.390000</ele>
                <time>2016-11-26T09:58:22Z</time>
            </trkpt>
            <trkpt lon="100.890774" lat="12.763865">
                <ele>7.350000</ele>
                <time>2016-11-26T09:59:10Z</time>
            </trkpt>
            <trkpt lon="100.891752" lat="12.764668">
                <ele>6.870000</ele>
                <time>2016-11-26T09:59:44Z</time>
            </trkpt>
            <trkpt lon="100.893312" lat="12.765773">
                <ele>4.940000</ele>
                <time>2016-11-26T10:00:29Z</time>
            </trkpt>
            <trkpt lon="100.893846" lat="12.765217">
                <ele>5.910000</ele>
                <time>2016-11-26T10:00:55Z</time>
            </trkpt>
            <trkpt lon="100.894140" lat="12.765251">
                <ele>5.420000</ele>
                <time>2016-11-26T10:01:02Z</time>
            </trkpt>
            <trkpt lon="100.894577" lat="12.764671">
                <ele>4.940000</ele>
                <time>2016-11-26T10:01:19Z</time>
            </trkpt>
            <trkpt lon="100.895091" lat="12.764251">
                <ele>4.460000</ele>
                <time>2016-11-26T10:01:36Z</time>
            </trkpt>
            <trkpt lon="100.895441" lat="12.764647">
                <ele>5.420000</ele>
                <time>2016-11-26T10:01:50Z</time>
            </trkpt>
            <trkpt lon="100.896250" lat="12.765121">
                <ele>5.910000</ele>
                <time>2016-11-26T10:02:10Z</time>
            </trkpt>
            <trkpt lon="100.896944" lat="12.764866">
                <ele>8.310000</ele>
                <time>2016-11-26T10:02:29Z</time>
            </trkpt>
            <trkpt lon="100.897447" lat="12.764943">
                <ele>9.270000</ele>
                <time>2016-11-26T10:02:43Z</time>
            </trkpt>
            <trkpt lon="100.897882" lat="12.764679">
                <ele>8.310000</ele>
                <time>2016-11-26T10:02:58Z</time>
            </trkpt>
            <trkpt lon="100.897866" lat="12.764579">
                <ele>7.830000</ele>
                <time>2016-11-26T10:03:26Z</time>
            </trkpt>
            <trkpt lon="100.897861" lat="12.764564">
                <ele>4.940000</ele>
                <time>2016-11-26T10:03:49Z</time>
            </trkpt>
        </trkseg>
    </trk>
</gpx>